sensor_id;sensor_type;location;lat;lon;timestamp;pressure;altitude;pressure_sealevel;temperature;humidity
61645;BME280;47553;52.428;13.382;2022-08-01T00:01:27;100658.41;;;20.64;65.87
61645;BME280;47553;52.428;13.382;2022-08-01T00:03:29;100666.72;;;20.63;66.04
61645;BME280;47553;52.428;13.382;2022-08-01T00:05:32;100658.41;;;20.64;66.10
61645;BME280;47553;52.428;13.382;2022-08-01T00:07:34;100665.00;;;20.62;66.43
61645;BME280;47553;52.428;13.382;2022-08-01T00:09:35;100664.69;;;20.65;67.05
61645;BME280;47553;52.428;13.382;2022-08-01T00:11:37;100671.81;;;20.66;67.31
61645;BME280;47553;52.428;13.382;2022-08-01T00:13:39;100675.97;;;20.42;68.94
61645;BME280;47553;52.428;13.382;2022-08-01T00:15:40;100671.16;;;20.36;69.15
61645;BME280;47553;52.428;13.382;2022-08-01T00:17:54;100670.31;;;20.36;69.67
61645;BME280;47553;52.428;13.382;2022-08-01T00:19:56;100651.94;;;20.12;70.77
61645;BME280;47553;52.428;13.382;2022-08-01T00:21:59;100667.56;;;20.18;71.25
61645;BME280;47553;52.428;13.382;2022-08-01T00:24:00;100667.97;;;20.23;70.94
61645;BME280;47553;52.428;13.382;2022-08-01T00:26:02;100676.09;;;20.23;71.04
61645;BME280;47553;52.428;13.382;2022-08-01T00:28:03;100664.41;;;20.22;71.26
61645;BME280;47553;52.428;13.382;2022-08-01T00:30:06;100676.09;;;20.23;71.30
61645;BME280;47553;52.428;13.382;2022-08-01T00:32:15;100670.97;;;20.20;71.77
61645;BME280;47553;52.428;13.382;2022-08-01T00:34:16;100674.13;;;20.15;72.03
61645;BME280;47553;52.428;13.382;2022-08-01T00:36:18;100684.06;;;20.24;71.75
61645;BME280;47553;52.428;13.382;2022-08-01T00:38:21;100674.69;;;20.19;72.09
61645;BME280;47553;52.428;13.382;2022-08-01T00:40:23;100672.97;;;20.18;72.42
61645;BME280;47553;52.428;13.382;2022-08-01T00:42:24;100670.19;;;20.10;72.78
61645;BME280;47553;52.428;13.382;2022-08-01T00:44:26;100667.00;;;20.14;72.87
61645;BME280;47553;52.428;13.382;2022-08-01T00:46:27;100670.19;;;20.10;73.05
61645;BME280;47553;52.428;13.382;2022-08-01T00:48:29;100665.16;;;20.15;72.98
61645;BME280;47553;52.428;13.382;2022-08-01T00:50:31;100663.53;;;20.22;73.28
61645;BME280;47553;52.428;13.382;2022-08-01T00:52:33;100669.88;;;20.13;73.46
61645;BME280;47553;52.428;13.382;2022-08-01T00:54:36;100672.66;;;20.21;73.53
61645;BME280;47553;52.428;13.382;2022-08-01T00:56:38;100669.25;;;20.19;73.72
61645;BME280;47553;52.428;13.382;2022-08-01T00:58:39;100668.47;;;20.09;74.48
61645;BME280;47553;52.428;13.382;2022-08-01T01:00:41;100662.75;;;20.12;74.44
61645;BME280;47553;52.428;13.382;2022-08-01T01:02:54;100664.47;;;20.13;74.37
61645;BME280;47553;52.428;13.382;2022-08-01T01:04:55;100668.16;;;20.12;74.47
61645;BME280;47553;52.428;13.382;2022-08-01T01:07:03;100662.75;;;20.12;74.60
61645;BME280;47553;52.428;13.382;2022-08-01T01:09:26;100660.03;;;20.12;74.83
61645;BME280;47553;52.428;13.382;2022-08-01T01:11:38;100657.25;;;20.04;75.09
61645;BME280;47553;52.428;13.382;2022-08-01T01:13:45;100663.22;;;20.07;75.51
61645;BME280;47553;52.428;13.382;2022-08-01T01:15:55;100660.25;;;20.01;75.87
61645;BME280;47553;52.428;13.382;2022-08-01T01:18:02;100667.69;;;19.99;75.96
61645;BME280;47553;52.428;13.382;2022-08-01T01:20:05;100661.72;;;19.95;76.12
61645;BME280;47553;52.428;13.382;2022-08-01T01:22:24;100658.72;;;19.98;76.11
61645;BME280;47553;52.428;13.382;2022-08-01T01:24:32;100656.06;;;19.88;77.01
61645;BME280;47553;52.428;13.382;2022-08-01T01:26:43;100657.50;;;19.83;77.31
61645;BME280;47553;52.428;13.382;2022-08-01T01:28:59;100658.06;;;19.86;77.47
61645;BME280;47553;52.428;13.382;2022-08-01T01:31:06;100651.53;;;19.79;77.87
61645;BME280;47553;52.428;13.382;2022-08-01T01:33:13;100648.25;;;19.76;78.25
61645;BME280;47553;52.428;13.382;2022-08-01T01:35:19;100651.81;;;19.76;78.41
61645;BME280;47553;52.428;13.382;2022-08-01T01:37:25;100659.78;;;19.87;77.99
61645;BME280;47553;52.428;13.382;2022-08-01T01:39:28;100648.53;;;19.82;78.28
61645;BME280;47553;52.428;13.382;2022-08-01T01:41:31;100650.97;;;19.76;79.17
61645;BME280;47553;52.428;13.382;2022-08-01T01:43:35;100644.84;;;19.74;79.33
61645;BME280;47553;52.428;13.382;2022-08-01T01:45:40;100642.16;;;19.74;79.73
61645;BME280;47553;52.428;13.382;2022-08-01T01:47:43;100645.00;;;19.72;80.11
61645;BME280;47553;52.428;13.382;2022-08-01T01:49:47;100655.59;;;19.66;80.66
61645;BME280;47553;52.428;13.382;2022-08-01T01:51:51;100642.91;;;19.66;81.55
61645;BME280;47553;52.428;13.382;2022-08-01T01:54:04;100644.50;;;19.59;81.78
61645;BME280;47553;52.428;13.382;2022-08-01T01:56:06;100647.91;;;19.61;81.72
61645;BME280;47553;52.428;13.382;2022-08-01T01:58:12;100641.81;;;19.59;82.05
61645;BME280;47553;52.428;13.382;2022-08-01T02:00:15;100645.09;;;19.53;82.40
61645;BME280;47553;52.428;13.382;2022-08-01T02:02:18;100638.59;;;19.46;83.20
61645;BME280;47553;52.428;13.382;2022-08-01T02:04:23;100646.56;;;19.38;84.42
61645;BME280;47553;52.428;13.382;2022-08-01T02:06:26;100640.72;;;19.42;84.22
61645;BME280;47553;52.428;13.382;2022-08-01T02:08:29;100648.25;;;19.39;84.85
61645;BME280;47553;52.428;13.382;2022-08-01T02:10:34;100653.09;;;19.45;84.35
61645;BME280;47553;52.428;13.382;2022-08-01T02:12:38;100650.25;;;19.37;85.39
61645;BME280;47553;52.428;13.382;2022-08-01T02:14:41;100648.84;;;19.33;85.91
61645;BME280;47553;52.428;13.382;2022-08-01T02:16:48;100654.00;;;19.26;86.02
61645;BME280;47553;52.428;13.382;2022-08-01T02:18:51;100658.84;;;19.22;86.49
61645;BME280;47553;52.428;13.382;2022-08-01T02:20:54;100662.25;;;19.24;86.29
61645;BME280;47553;52.428;13.382;2022-08-01T02:23:01;100654.03;;;19.16;87.01
61645;BME280;47553;52.428;13.382;2022-08-01T02:25:10;100657.44;;;19.18;86.94
61645;BME280;47553;52.428;13.382;2022-08-01T02:27:16;100654.06;;;19.07;87.75
61645;BME280;47553;52.428;13.382;2022-08-01T02:29:22;100658.03;;;19.12;87.64
61645;BME280;47553;52.428;13.382;2022-08-01T02:31:25;100657.31;;;19.10;87.74
61645;BME280;47553;52.428;13.382;2022-08-01T02:33:34;100646.06;;;19.05;88.20
61645;BME280;47553;52.428;13.382;2022-08-01T02:35:41;100645.78;;;18.98;88.74
61645;BME280;47553;52.428;13.382;2022-08-01T02:38:06;100652.19;;;18.97;89.04
61645;BME280;47553;52.428;13.382;2022-08-01T02:40:11;100649.50;;;18.88;89.72
61645;BME280;47553;52.428;13.382;2022-08-01T02:42:15;100657.75;;;18.86;90.13
61645;BME280;47553;52.428;13.382;2022-08-01T02:44:23;100652.91;;;18.90;90.19
61645;BME280;47553;52.428;13.382;2022-08-01T02:46:29;100653.78;;;18.90;89.94
61645;BME280;47553;52.428;13.382;2022-08-01T02:48:36;100648.81;;;18.86;90.37
61645;BME280;47553;52.428;13.382;2022-08-01T02:50:42;100650.22;;;18.90;90.17
61645;BME280;47553;52.428;13.382;2022-08-01T02:52:48;100646.50;;;18.91;90.24
61645;BME280;47553;52.428;13.382;2022-08-01T02:54:53;100647.50;;;18.90;90.43
61645;BME280;47553;52.428;13.382;2022-08-01T02:56:56;100647.50;;;18.90;90.87
61645;BME280;47553;52.428;13.382;2022-08-01T02:58:59;100642.41;;;18.87;90.88
61645;BME280;47553;52.428;13.382;2022-08-01T03:01:01;100653.50;;;18.84;91.09
61645;BME280;47553;52.428;13.382;2022-08-01T03:03:05;100658.91;;;18.84;91.13
61645;BME280;47553;52.428;13.382;2022-08-01T03:05:08;100641.84;;;18.74;91.24
61645;BME280;47553;52.428;13.382;2022-08-01T03:07:13;100653.78;;;18.81;90.92
61645;BME280;47553;52.428;13.382;2022-08-01T03:09:16;100655.78;;;18.79;91.13
61645;BME280;47553;52.428;13.382;2022-08-01T03:11:18;100658.06;;;18.74;91.47
61645;BME280;47553;52.428;13.382;2022-08-01T03:13:21;100654.09;;;18.68;91.82
61645;BME280;47553;52.428;13.382;2022-08-01T03:15:24;100659.75;;;18.75;91.77
61645;BME280;47553;52.428;13.382;2022-08-01T03:17:29;100659.47;;;18.78;91.77
61645;BME280;47553;52.428;13.382;2022-08-01T03:19:32;100663.19;;;18.77;91.66
61645;BME280;47553;52.428;13.382;2022-08-01T03:21:35;100660.06;;;18.72;92.29
61645;BME280;47553;52.428;13.382;2022-08-01T03:23:40;100660.63;;;18.65;93.04
61645;BME280;47553;52.428;13.382;2022-08-01T03:25:44;100662.63;;;18.63;93.13
61645;BME280;47553;52.428;13.382;2022-08-01T03:27:51;100672.72;;;18.61;93.21
61645;BME280;47553;52.428;13.382;2022-08-01T03:29:56;100667.59;;;18.58;93.38
61645;BME280;47553;52.428;13.382;2022-08-01T03:32:00;100671.16;;;18.59;93.36
61645;BME280;47553;52.428;13.382;2022-08-01T03:34:02;100671.72;;;18.62;93.25
61645;BME280;47553;52.428;13.382;2022-08-01T03:36:09;100675.69;;;18.58;93.52
61645;BME280;47553;52.428;13.382;2022-08-01T03:38:13;100673.41;;;18.63;93.57
61645;BME280;47553;52.428;13.382;2022-08-01T03:40:23;100675.13;;;18.64;93.34
61645;BME280;47553;52.428;13.382;2022-08-01T03:42:31;100672.84;;;18.70;93.02
61645;BME280;47553;52.428;13.382;2022-08-01T03:44:35;100670.00;;;18.81;92.47
61645;BME280;47553;52.428;13.382;2022-08-01T03:46:42;100666.59;;;18.79;92.75
61645;BME280;47553;52.428;13.382;2022-08-01T03:48:47;100677.97;;;18.82;92.44
61645;BME280;47553;52.428;13.382;2022-08-01T03:50:51;100671.13;;;18.88;92.08
61645;BME280;47553;52.428;13.382;2022-08-01T03:52:54;100673.13;;;18.86;92.24
61645;BME280;47553;52.428;13.382;2022-08-01T03:55:01;100674.69;;;18.88;92.05
61645;BME280;47553;52.428;13.382;2022-08-01T03:57:05;100673.13;;;18.86;92.06
61645;BME280;47553;52.428;13.382;2022-08-01T03:59:09;100683.94;;;18.86;92.30
61645;BME280;47553;52.428;13.382;2022-08-01T04:01:11;100686.19;;;18.90;92.03
61645;BME280;47553;52.428;13.382;2022-08-01T04:03:16;100673.25;;;18.94;92.17
61645;BME280;47553;52.428;13.382;2022-08-01T04:05:18;100682.22;;;18.94;92.26
61645;BME280;47553;52.428;13.382;2022-08-01T04:07:26;100672.81;;;18.98;91.90
61645;BME280;47553;52.428;13.382;2022-08-01T04:09:28;100677.78;;;19.03;91.71
61645;BME280;47553;52.428;13.382;2022-08-01T04:11:30;100681.94;;;19.07;91.78
61645;BME280;47553;52.428;13.382;2022-08-01T04:13:33;100680.34;;;19.14;91.20
61645;BME280;47553;52.428;13.382;2022-08-01T04:15:37;100675.38;;;19.19;91.16
61645;BME280;47553;52.428;13.382;2022-08-01T04:17:39;100677.66;;;19.14;91.50
61645;BME280;47553;52.428;13.382;2022-08-01T04:19:41;100682.50;;;19.11;92.38
61645;BME280;47553;52.428;13.382;2022-08-01T04:21:42;100681.91;;;19.17;91.86
61645;BME280;47553;52.428;13.382;2022-08-01T04:23:45;100682.59;;;19.28;91.18
61645;BME280;47553;52.428;13.382;2022-08-01T04:25:52;100681.59;;;19.29;91.38
61645;BME280;47553;52.428;13.382;2022-08-01T04:27:54;100688.59;;;19.22;92.29
61645;BME280;47553;52.428;13.382;2022-08-01T04:29:58;100681.88;;;19.26;92.50
61645;BME280;47553;52.428;13.382;2022-08-01T04:32:02;100682.75;;;19.17;93.35
61645;BME280;47553;52.428;13.382;2022-08-01T04:34:05;100681.34;;;19.13;93.63
61645;BME280;47553;52.428;13.382;2022-08-01T04:36:09;100683.06;;;19.14;93.74
61645;BME280;47553;52.428;13.382;2022-08-01T04:38:13;100683.75;;;19.16;94.26
61645;BME280;47553;52.428;13.382;2022-08-01T04:40:17;100682.75;;;19.17;94.88
61645;BME280;47553;52.428;13.382;2022-08-01T04:42:18;100693.28;;;19.20;95.24
61645;BME280;47553;52.428;13.382;2022-08-01T04:44:33;100687.06;;;19.10;96.06
61645;BME280;47553;52.428;13.382;2022-08-01T04:46:36;100698.69;;;19.20;95.18
61645;BME280;47553;52.428;13.382;2022-08-01T04:48:38;100692.41;;;19.29;95.10
61645;BME280;47553;52.428;13.382;2022-08-01T04:50:41;100698.81;;;19.28;95.30
61645;BME280;47553;52.428;13.382;2022-08-01T04:52:43;100699.22;;;19.34;94.85
61645;BME280;47553;52.428;13.382;2022-08-01T04:54:45;100692.28;;;19.21;95.55
61645;BME280;47553;52.428;13.382;2022-08-01T04:56:47;100702.81;;;19.24;95.63
61645;BME280;47553;52.428;13.382;2022-08-01T04:58:52;100696.56;;;19.24;95.95
61645;BME280;47553;52.428;13.382;2022-08-01T05:00:54;100696.44;;;19.16;96.17
61645;BME280;47553;52.428;13.382;2022-08-01T05:02:56;100699.25;;;19.05;97.25
61645;BME280;47553;52.428;13.382;2022-08-01T05:04:58;100714.91;;;19.20;94.33
61645;BME280;47553;52.428;13.382;2022-08-01T05:07:00;100707.75;;;19.39;91.59
61645;BME280;47553;52.428;13.382;2022-08-01T05:09:01;100709.19;;;19.43;92.13
61645;BME280;47553;52.428;13.382;2022-08-01T05:11:03;100710.84;;;19.63;88.50
61645;BME280;47553;52.428;13.382;2022-08-01T05:13:05;100707.38;;;19.71;89.86
61645;BME280;47553;52.428;13.382;2022-08-01T05:15:07;100707.66;;;19.77;89.50
61645;BME280;47553;52.428;13.382;2022-08-01T05:17:15;100707.56;;;19.59;92.91
61645;BME280;47553;52.428;13.382;2022-08-01T05:19:18;100703.38;;;19.75;90.94
61645;BME280;47553;52.428;13.382;2022-08-01T05:21:20;100707.66;;;19.77;90.47
61645;BME280;47553;52.428;13.382;2022-08-01T05:23:22;100713.91;;;19.87;90.44
61645;BME280;47553;52.428;13.382;2022-08-01T05:25:43;100717.09;;;20.01;89.96
61645;BME280;47553;52.428;13.382;2022-08-01T05:27:57;100707.06;;;19.83;91.77
61645;BME280;47553;52.428;13.382;2022-08-01T05:29:59;100710.34;;;19.77;92.92
61645;BME280;47553;52.428;13.382;2022-08-01T05:32:01;100708.84;;;19.65;94.39
61645;BME280;47553;52.428;13.382;2022-08-01T05:34:03;100717.06;;;19.73;94.23
61645;BME280;47553;52.428;13.382;2022-08-01T05:36:06;100713.34;;;19.74;94.46
61645;BME280;47553;52.428;13.382;2022-08-01T05:38:08;100709.66;;;19.75;94.44
61645;BME280;47553;52.428;13.382;2022-08-01T05:40:15;100710.53;;;19.66;95.07
61645;BME280;47553;52.428;13.382;2022-08-01T05:42:16;100711.34;;;19.76;94.81
61645;BME280;47553;52.428;13.382;2022-08-01T05:44:18;100713.34;;;19.84;94.26
61645;BME280;47553;52.428;13.382;2022-08-01T05:46:20;100718.09;;;20.00;93.73
61645;BME280;47553;52.428;13.382;2022-08-01T05:48:24;100708.88;;;20.20;92.64
61645;BME280;47553;52.428;13.382;2022-08-01T05:50:25;100714.28;;;20.20;92.29
61645;BME280;47553;52.428;13.382;2022-08-01T05:52:28;100701.03;;;20.27;91.60
61645;BME280;47553;52.428;13.382;2022-08-01T05:54:30;100709.47;;;20.41;89.99
61645;BME280;47553;52.428;13.382;2022-08-01T05:56:32;100710.47;;;20.40;89.94
61645;BME280;47553;52.428;13.382;2022-08-01T05:58:33;100723.94;;;20.32;90.69
61645;BME280;47553;52.428;13.382;2022-08-01T06:00:35;100721.63;;;20.37;90.39
61645;BME280;47553;52.428;13.382;2022-08-01T06:02:40;100726.94;;;20.29;90.61
61645;BME280;47553;52.428;13.382;2022-08-01T06:04:41;100726.56;;;20.24;91.22
61645;BME280;47553;52.428;13.382;2022-08-01T06:06:43;100722.13;;;20.23;90.93
61645;BME280;47553;52.428;13.382;2022-08-01T06:08:46;100727.34;;;20.34;90.55
61645;BME280;47553;52.428;13.382;2022-08-01T06:10:51;100728.34;;;20.33;90.56
61645;BME280;47553;52.428;13.382;2022-08-01T06:12:53;100729.59;;;20.39;90.56
61645;BME280;47553;52.428;13.382;2022-08-01T06:14:55;100720.06;;;20.35;90.79
61645;BME280;47553;52.428;13.382;2022-08-01T06:16:56;100725.66;;;20.51;89.55
61645;BME280;47553;52.428;13.382;2022-08-01T06:18:58;100725.50;;;20.52;89.38
61645;BME280;47553;52.428;13.382;2022-08-01T06:20:59;100734.63;;;20.51;89.15
61645;BME280;47553;52.428;13.382;2022-08-01T06:23:01;100730.53;;;20.47;89.76
61645;BME280;47553;52.428;13.382;2022-08-01T06:25:24;100733.63;;;20.35;90.33
61645;BME280;47553;52.428;13.382;2022-08-01T06:27:26;100733.38;;;20.28;90.58
61645;BME280;47553;52.428;13.382;2022-08-01T06:29:30;100739.19;;;20.33;90.90
61645;BME280;47553;52.428;13.382;2022-08-01T06:31:31;100735.94;;;20.30;91.03
61645;BME280;47553;52.428;13.382;2022-08-01T06:33:34;100732.47;;;20.37;91.99
61645;BME280;47553;52.428;13.382;2022-08-01T06:35:36;100741.59;;;20.36;92.88
61645;BME280;47553;52.428;13.382;2022-08-01T06:37:37;100740.78;;;20.26;93.33
61645;BME280;47553;52.428;13.382;2022-08-01T06:39:39;100729.63;;;20.02;94.40
61645;BME280;47553;52.428;13.382;2022-08-01T06:41:42;100750.50;;;20.19;95.07
61645;BME280;47553;52.428;13.382;2022-08-01T06:43:43;100749.78;;;20.17;95.03
61645;BME280;47553;52.428;13.382;2022-08-01T06:45:45;100748.78;;;20.18;95.63
61645;BME280;47553;52.428;13.382;2022-08-01T06:47:46;100749.78;;;20.17;97.71
61645;BME280;47553;52.428;13.382;2022-08-01T06:49:51;100751.19;;;20.21;97.47
61645;BME280;47553;52.428;13.382;2022-08-01T06:51:52;100750.78;;;20.16;97.33
61645;BME280;47553;52.428;13.382;2022-08-01T06:53:54;100744.19;;;20.28;97.03
61645;BME280;47553;52.428;13.382;2022-08-01T06:55:56;100748.22;;;20.24;95.31
61645;BME280;47553;52.428;13.382;2022-08-01T06:57:58;100747.00;;;20.36;95.18
61645;BME280;47553;52.428;13.382;2022-08-01T07:00:01;100744.97;;;20.66;93.64
61645;BME280;47553;52.428;13.382;2022-08-01T07:02:04;100749.38;;;20.67;92.41
61645;BME280;47553;52.428;13.382;2022-08-01T07:04:06;100750.72;;;20.80;91.22
61645;BME280;47553;52.428;13.382;2022-08-01T07:06:08;100750.41;;;20.83;90.02
61645;BME280;47553;52.428;13.382;2022-08-01T07:08:09;100750.78;;;20.71;90.43
61645;BME280;47553;52.428;13.382;2022-08-01T07:10:11;100750.59;;;20.54;90.98
61645;BME280;47553;52.428;13.382;2022-08-01T07:12:12;100752.09;;;20.67;90.15
61645;BME280;47553;52.428;13.382;2022-08-01T07:14:15;100754.81;;;20.67;90.71
61645;BME280;47553;52.428;13.382;2022-08-01T07:16:17;100757.22;;;20.70;89.92
61645;BME280;47553;52.428;13.382;2022-08-01T07:18:19;100750.47;;;20.74;89.16
61645;BME280;47553;52.428;13.382;2022-08-01T07:20:26;100742.66;;;20.88;89.33
61645;BME280;47553;52.428;13.382;2022-08-01T07:22:29;100748.63;;;20.92;88.28
61645;BME280;47553;52.428;13.382;2022-08-01T07:24:32;100751.88;;;20.96;87.76
61645;BME280;47553;52.428;13.382;2022-08-01T07:26:36;100750.63;;;20.90;88.49
61645;BME280;47553;52.428;13.382;2022-08-01T07:28:38;100747.22;;;20.88;88.39
61645;BME280;47553;52.428;13.382;2022-08-01T07:30:45;100747.38;;;20.69;88.99
61645;BME280;47553;52.428;13.382;2022-08-01T07:32:47;100755.13;;;20.64;89.75
61645;BME280;47553;52.428;13.382;2022-08-01T07:34:49;100746.63;;;20.49;90.35
61645;BME280;47553;52.428;13.382;2022-08-01T07:36:51;100763.44;;;20.52;90.53
61645;BME280;47553;52.428;13.382;2022-08-01T07:38:53;100756.84;;;20.55;90.18
61645;BME280;47553;52.428;13.382;2022-08-01T07:40:54;100764.56;;;20.60;90.36
61645;BME280;47553;52.428;13.382;2022-08-01T07:42:56;100766.19;;;20.70;88.70
61645;BME280;47553;52.428;13.382;2022-08-01T07:44:57;100758.00;;;20.80;87.95
61645;BME280;47553;52.428;13.382;2022-08-01T07:47:00;100766.28;;;20.96;87.25
61645;BME280;47553;52.428;13.382;2022-08-01T07:49:02;100759.00;;;21.14;85.40
61645;BME280;47553;52.428;13.382;2022-08-01T07:51:04;100760.72;;;21.15;83.45
61645;BME280;47553;52.428;13.382;2022-08-01T07:53:05;100764.59;;;21.31;83.45
61645;BME280;47553;52.428;13.382;2022-08-01T07:55:08;100769.75;;;21.24;83.22
61645;BME280;47553;52.428;13.382;2022-08-01T07:57:10;100775.41;;;20.95;83.90
61645;BME280;47553;52.428;13.382;2022-08-01T07:59:11;100774.25;;;20.80;83.54
61645;BME280;47553;52.428;13.382;2022-08-01T08:01:26;100774.94;;;20.82;83.72
61645;BME280;47553;52.428;13.382;2022-08-01T08:03:29;100775.88;;;20.73;84.35
61645;BME280;47553;52.428;13.382;2022-08-01T08:05:31;100784.84;;;20.73;84.37
61645;BME280;47553;52.428;13.382;2022-08-01T08:07:53;100779.41;;;20.55;85.34
61645;BME280;47553;52.428;13.382;2022-08-01T08:09:54;100780.22;;;20.66;85.71
61645;BME280;47553;52.428;13.382;2022-08-01T08:11:56;100785.22;;;20.61;86.74
61645;BME280;47553;52.428;13.382;2022-08-01T08:13:57;100786.09;;;20.61;86.85
61645;BME280;47553;52.428;13.382;2022-08-01T08:15:59;100779.50;;;20.64;86.74
61645;BME280;47553;52.428;13.382;2022-08-01T08:18:02;100782.72;;;20.49;86.73
61645;BME280;47553;52.428;13.382;2022-08-01T08:20:06;100789.44;;;20.45;86.82
61645;BME280;47553;52.428;13.382;2022-08-01T08:22:10;100796.56;;;20.46;86.01
61645;BME280;47553;52.428;13.382;2022-08-01T08:24:12;100798.06;;;20.31;85.43
61645;BME280;47553;52.428;13.382;2022-08-01T08:26:13;100792.34;;;20.34;85.32
61645;BME280;47553;52.428;13.382;2022-08-01T08:28:15;100799.47;;;20.35;85.49
61645;BME280;47553;52.428;13.382;2022-08-01T08:30:16;100801.47;;;20.33;84.18
61645;BME280;47553;52.428;13.382;2022-08-01T08:32:18;100799.06;;;20.30;84.15
61645;BME280;47553;52.428;13.382;2022-08-01T08:34:20;100796.97;;;20.24;84.32
61645;BME280;47553;52.428;13.382;2022-08-01T08:36:23;100793.16;;;20.44;83.79
61645;BME280;47553;52.428;13.382;2022-08-01T08:38:31;100793.75;;;20.66;81.89
61645;BME280;47553;52.428;13.382;2022-08-01T08:40:36;100802.13;;;20.90;80.14
61645;BME280;47553;52.428;13.382;2022-08-01T08:42:40;100792.16;;;21.08;79.22
61645;BME280;47553;52.428;13.382;2022-08-01T08:44:42;100796.94;;;21.50;77.59
61645;BME280;47553;52.428;13.382;2022-08-01T08:46:46;100794.47;;;21.82;75.46
61645;BME280;47553;52.428;13.382;2022-08-01T08:48:48;100794.09;;;22.37;73.69
61645;BME280;47553;52.428;13.382;2022-08-01T08:50:51;100798.03;;;22.93;72.29
61645;BME280;47553;52.428;13.382;2022-08-01T08:52:55;100801.44;;;22.87;70.35
61645;BME280;47553;52.428;13.382;2022-08-01T08:54:58;100796.00;;;22.87;69.55
61645;BME280;47553;52.428;13.382;2022-08-01T08:57:01;100797.34;;;22.83;69.75
61645;BME280;47553;52.428;13.382;2022-08-01T08:59:03;100796.97;;;22.78;69.55
61645;BME280;47553;52.428;13.382;2022-08-01T09:01:05;100797.09;;;22.60;69.97
61645;BME280;47553;52.428;13.382;2022-08-01T09:03:07;100811.88;;;22.66;69.50
61645;BME280;47553;52.428;13.382;2022-08-01T09:05:11;100793.84;;;22.57;69.42
61645;BME280;47553;52.428;13.382;2022-08-01T09:07:19;100810.03;;;22.74;69.26
61645;BME280;47553;52.428;13.382;2022-08-01T09:09:23;100796.94;;;22.70;68.81
61645;BME280;47553;52.428;13.382;2022-08-01T09:11:25;100800.31;;;22.56;67.78
61645;BME280;47553;52.428;13.382;2022-08-01T09:13:26;100802.63;;;22.51;68.10
61645;BME280;47553;52.428;13.382;2022-08-01T09:15:38;100807.16;;;22.34;69.38
61645;BME280;47553;52.428;13.382;2022-08-01T09:17:40;100814.34;;;22.09;69.39
61645;BME280;47553;52.428;13.382;2022-08-01T09:19:44;100813.91;;;21.96;70.85
61645;BME280;47553;52.428;13.382;2022-08-01T09:21:56;100825.66;;;21.78;71.77
61645;BME280;47553;52.428;13.382;2022-08-01T09:23:59;100823.88;;;21.69;72.83
61645;BME280;47553;52.428;13.382;2022-08-01T09:26:02;100826.47;;;21.53;73.22
61645;BME280;47553;52.428;13.382;2022-08-01T09:28:05;100836.41;;;21.44;73.96
61645;BME280;47553;52.428;13.382;2022-08-01T09:30:09;100831.38;;;21.49;73.60
61645;BME280;47553;52.428;13.382;2022-08-01T09:32:11;100832.91;;;21.52;73.59
61645;BME280;47553;52.428;13.382;2022-08-01T09:34:24;100839.81;;;21.46;73.84
61645;BME280;47553;52.428;13.382;2022-08-01T09:36:27;100834.09;;;21.49;74.28
61645;BME280;47553;52.428;13.382;2022-08-01T09:38:44;100844.63;;;21.52;74.17
61645;BME280;47553;52.428;13.382;2022-08-01T09:40:53;100837.72;;;21.58;74.57
61645;BME280;47553;52.428;13.382;2022-08-01T09:43:10;100835.63;;;21.52;74.38
61645;BME280;47553;52.428;13.382;2022-08-01T09:45:33;100844.31;;;21.56;74.49
61645;BME280;47553;52.428;13.382;2022-08-01T09:47:42;100831.66;;;21.64;74.15
61645;BME280;47553;52.428;13.382;2022-08-01T09:49:44;100849.47;;;21.85;73.44
61645;BME280;47553;52.428;13.382;2022-08-01T09:51:52;100848.50;;;21.94;72.72
61645;BME280;47553;52.428;13.382;2022-08-01T09:54:02;100858.13;;;22.06;71.91
61645;BME280;47553;52.428;13.382;2022-08-01T09:56:11;100846.94;;;22.09;72.07
61645;BME280;47553;52.428;13.382;2022-08-01T09:58:15;100844.31;;;21.99;72.16
61645;BME280;47553;52.428;13.382;2022-08-01T10:00:17;100843.84;;;22.04;72.16
61645;BME280;47553;52.428;13.382;2022-08-01T10:02:39;100854.47;;;21.97;72.55
61645;BME280;47553;52.428;13.382;2022-08-01T10:04:48;100856.66;;;21.94;73.12
61645;BME280;47553;52.428;13.382;2022-08-01T10:06:51;100853.81;;;21.77;73.25
61645;BME280;47553;52.428;13.382;2022-08-01T10:08:53;100861.44;;;21.56;73.56
61645;BME280;47553;52.428;13.382;2022-08-01T10:11:08;100863.47;;;21.54;73.37
61645;BME280;47553;52.428;13.382;2022-08-01T10:13:12;100867.94;;;21.28;74.77
61645;BME280;47553;52.428;13.382;2022-08-01T10:15:16;100868.81;;;21.28;75.08
61645;BME280;47553;52.428;13.382;2022-08-01T10:17:19;100873.63;;;21.34;75.41
61645;BME280;47553;52.428;13.382;2022-08-01T10:19:24;100876.56;;;21.23;75.66
61645;BME280;47553;52.428;13.382;2022-08-01T10:21:32;100868.09;;;21.08;76.61
61645;BME280;47553;52.428;13.382;2022-08-01T10:23:54;100873.75;;;21.15;76.25
61645;BME280;47553;52.428;13.382;2022-08-01T10:26:04;100888.25;;;21.24;75.97
61645;BME280;47553;52.428;13.382;2022-08-01T10:28:14;100873.94;;;21.49;75.42
61645;BME280;47553;52.428;13.382;2022-08-01T10:30:22;100871.84;;;21.43;75.14
61645;BME280;47553;52.428;13.382;2022-08-01T10:32:25;100884.00;;;21.57;74.88
61645;BME280;47553;52.428;13.382;2022-08-01T10:34:29;100874.00;;;21.57;74.48
61645;BME280;47553;52.428;13.382;2022-08-01T10:36:31;100869.22;;;21.51;74.77
61645;BME280;47553;52.428;13.382;2022-08-01T10:38:33;100882.22;;;21.65;74.77
61645;BME280;47553;52.428;13.382;2022-08-01T10:40:35;100882.22;;;21.65;74.34
61645;BME280;47553;52.428;13.382;2022-08-01T10:42:41;100884.22;;;21.63;73.75